Hyalite Weather Station

This weather station provides temperature, wind speed, gust or max wind speed, and wind direction at 9982ft near the summit of Flanders Mountain. This data can be used with temperature and precipitation data from the Shower Falls SNOTEL site. If the data has not been updated recently you can view it directly on datagarrison.com

Elevation
9982ft
Jump to table bottom
Date Time Temperature
deg F
RH, % Wind Speed Wind Gust Wind Direction
12/12/19 21:00 15.9 69 17 26 SW - 244
12/12/19 20:00 15.1 62 17 31 W - 248
12/12/19 19:00 14.9 69 14 24 W - 253
12/12/19 18:00 15.5 71 11 28 W - 261
12/12/19 17:00 15.8 72 20 43 W - 268
12/12/19 16:00 16.8 75 23 44 W - 264
12/12/19 15:00 17.4 82 24 51 W - 267
12/12/19 14:00 17.4 88 24 51 W - 263
12/12/19 13:00 17.8 83 21 43 W - 267
12/12/19 12:00 19.1 83 23 48 W - 258
12/12/19 11:00 19.8 89 22 51 W - 261
12/12/19 10:00 18.8 94 26 48 W - 263
12/12/19 09:00 18.4 94 20 34 W - 256
12/12/19 08:00 18.7 94 24 35 W - 256
12/12/19 07:00 18.0 95 24 34 W - 254
12/12/19 06:00 17.3 95 21 32 W - 251
12/12/19 05:00 17.5 95 23 35 W - 254
12/12/19 04:00 17.9 94 25 36 W - 253
12/12/19 03:00 17.9 93 22 31 W - 251
12/12/19 02:00 16.5 93 21 30 W - 251
12/12/19 01:00 16.2 84 20 31 W - 251
12/12/19 00:00 16.0 85 15 25 SW - 247
12/11/19 23:00 15.9 86 14 27 SW - 244
12/11/19 22:00 15.7 91 15 27 W - 251
12/11/19 21:00 15.3 93 14 26 W - 248
12/11/19 20:00 15.0 93 12 23 W - 248
12/11/19 19:00 15.1 94 12 25 W - 253
12/11/19 18:00 15.5 94 12 28 W - 254
12/11/19 17:00 15.8 94 12 24 W - 260
12/11/19 16:00 16.1 93 16 24 W - 251
12/11/19 15:00 16.9 91 17 29 W - 251
12/11/19 14:00 17.5 89 19 34 W - 251
12/11/19 13:00 16.8 91 23 37 W - 253
12/11/19 12:00 16.0 88 27 43 W - 253
12/11/19 11:00 18.1 84 33 50 W - 250
12/11/19 10:00 15.5 86 27 39 SW - 247
12/11/19 09:00 17.1 81 25 38 W - 248
12/11/19 08:00 17.5 80 21 34 W - 251
12/11/19 07:00 17.4 58 20 31 W - 253
12/11/19 06:00 18.6 58 18 28 SW - 241
12/11/19 05:00 19.1 50 19 30 W - 251
12/11/19 04:00 20.4 49 18 37 SW - 246
12/11/19 03:00 22.2 45 21 32 SW - 244
12/11/19 02:00 21.7 52 23 34 SW - 247
12/11/19 01:00 21.6 51 22 31 W - 251
12/11/19 00:00 21.3 52 20 31 W - 251
12/10/19 23:00 20.1 59 16 24 W - 250
12/10/19 22:00 18.9 71 14 22 W - 248
12/10/19 21:00 17.8 91 10 20 SW - 247
12/10/19 20:00 18.9 94 11 17 W - 258